Ostrowiec Swietokrzyski, Poland
Current Conditions -  °F | °C
As of 2:30 PM on Thursday 30 Oct 2014 (Local Time) from EPLB Reporting Station
Clear Clear  
Wind Chill: 44°   Ceiling: Unl
Heat Index: 48°   Visibility: 4mi
Dew Point: 39°   Wind: 9mph
Humidity: 71%   Direction: 280°W
Pressure: 30.21"   Gusts: NA
Location:  50.95°N, 21.39°E
Report Text: EPLB 301230Z 28008KT 240V350 7000 NSC 09/04 Q1023
Loading
Personal Weather Stations






























Interactive Weather Map
Tropical Storm Tracking
New forecast layout! Learn more

10-Day Weather Forecast

Advertisements
Track Severe Weather on mobile